Time;durP1;ratioP1;P1;durP2;ratioP2;P2;SDS_P1;SDS_P2;PMS_P1;PMS_P2;Temp;Humidity;BMP_temperature;BMP_pressure;BME280_temperature;BME280_humidity;BME280_pressure;Samples;Min_cycle;Max_cycle;Signal;HPM_P1;HPM_P2
2023/06/04 00:02:22;;;;;;;;;8.33;8.00;;;;;21.99;54.49;100994.56;146606;566;46012;-65
2023/06/04 00:05:30;;;;;;;;;8.25;8.00;;;;;21.87;53.43;100988.31;146609;641;46010;-65
2023/06/04 00:08:35;;;;;;;;;10.00;8.75;;;;;21.85;55.24;100997.97;146603;585;47012;-66
2023/06/04 00:11:46;;;;;;;;;8.50;8.00;;;;;21.82;54.72;100997.06;146608;655;47025;-64
2023/06/04 00:14:56;;;;;;;;;9.25;7.25;;;;;21.75;55.91;100993.50;146607;565;46013;-65
2023/06/04 00:18:00;;;;;;;;;11.00;9.67;;;;;21.64;56.62;100987.19;146609;590;46020;-64
2023/06/04 00:20:57;;;;;;;;;6.67;6.67;;;;;21.51;56.23;100986.19;146607;596;46012;-65
2023/06/04 00:23:57;;;;;;;;;8.00;8.00;;;;;21.39;56.37;100986.94;146607;575;46028;-65
2023/06/04 00:27:08;;;;;;;;;8.33;7.00;;;;;21.27;55.64;100992.03;146602;564;48914;-66
2023/06/04 00:30:00;;;;;;;;;5.33;5.00;;;;;21.16;57.38;100988.41;146603;596;47021;-65
2023/06/04 00:33:00;;;;;;;;;10.33;8.00;;;;;21.07;57.16;100986.53;146605;617;46016;-65
2023/06/04 00:36:06;;;;;;;;;8.00;8.00;;;;;21.01;55.92;100978.56;146607;626;46020;-65
2023/06/04 00:39:18;;;;;;;;;;;;;;;;;;;;;
2023/06/04 00:42:18;;;;;;;;;7.50;6.75;;;;;21.03;57.85;100983.81;146607;569;46020;-65
2023/06/04 00:45:33;;;;;;;;;7.50;7.50;;;;;21.01;57.56;100982.94;146606;586;46012;-65
2023/06/04 00:48:42;;;;;;;;;;;;;;;;;;;;;
2023/06/04 00:51:48;;;;;;;;;12.33;8.67;;;;;20.92;58.45;100988.97;146605;577;47915;-64
2023/06/04 00:55:00;;;;;;;;;8.50;7.00;;;;;20.89;57.02;100989.81;146608;613;46014;-64
2023/06/04 00:57:55;;;;;;;;;7.25;7.25;;;;;20.91;57.88;100977.56;146603;574;47012;-64
2023/06/04 01:01:01;;;;;;;;;7.00;6.00;;;;;20.98;56.60;100984.66;146600;587;47010;-64
2023/06/04 01:04:11;;;;;;;;;;;;;;;;;;;;;
2023/06/04 01:07:16;;;;;;;;;8.33;8.00;;;;;21.19;56.90;100991.97;146610;595;46010;-63
2023/06/04 01:10:13;;;;;;;;;8.50;7.75;;;;;21.29;56.42;100984.16;146604;694;47012;-64
2023/06/04 01:13:11;;;;;;;;;7.33;7.00;;;;;21.34;57.29;100983.34;146609;624;46021;-64
2023/06/04 01:16:20;;;;;;;;;8.67;7.00;;;;;21.37;57.26;100983.41;146603;588;46916;-64
2023/06/04 01:19:51;;;;;;;;;6.75;6.25;;;;;21.32;56.81;100978.91;146605;602;46020;-64
2023/06/04 01:23:20;;;;;;;;;9.33;8.33;;;;;21.19;55.13;100973.50;146604;636;47012;-63
2023/06/04 01:26:19;;;;;;;;;8.75;7.50;;;;;21.06;58.48;100976.88;146606;563;46010;-63
2023/06/04 01:29:13;;;;;;;;;5.33;5.33;;;;;20.92;58.37;100978.44;146606;582;46017;-63
2023/06/04 01:32:09;;;;;;;;;9.67;8.33;;;;;20.75;58.93;100986.13;146607;569;46010;-64
2023/06/04 01:35:26;;;;;;;;;7.33;7.00;;;;;20.59;58.49;100986.75;146600;614;47015;-63
2023/06/04 01:38:26;;;;;;;;;8.67;7.67;;;;;20.44;59.98;100990.91;146605;571;47010;-64
2023/06/04 01:41:29;;;;;;;;;9.00;8.67;;;;;20.29;59.87;100995.94;146606;654;46014;-63
2023/06/04 01:44:53;;;;;;;;;8.33;6.33;;;;;20.09;60.10;100995.59;146609;624;46011;-63
2023/06/04 01:47:46;;;;;;;;;8.33;8.33;;;;;19.97;60.66;101000.66;146601;605;46016;-63
2023/06/04 01:50:56;;;;;;;;;9.33;9.00;;;;;19.91;58.71;100998.81;146607;570;46018;-64
2023/06/04 01:54:02;;;;;;;;;7.33;7.33;;;;;19.89;61.18;101000.53;146606;594;46032;-64
2023/06/04 01:56:59;;;;;;;;;9.00;9.00;;;;;19.86;60.68;101004.84;146609;611;46020;-64
2023/06/04 01:59:54;;;;;;;;;8.67;7.33;;;;;19.81;61.63;101002.13;146605;565;46915;-64
2023/06/04 02:03:13;;;;;;;;;7.67;7.67;;;;;19.76;60.62;101002.06;146609;573;46020;-65
2023/06/04 02:06:25;;;;;;;;;;;;;;;;;;;;;
2023/06/04 02:09:36;;;;;;;;;10.00;9.00;;;;;19.82;60.98;101011.81;146609;581;46020;-70
2023/06/04 02:12:39;;;;;;;;;8.50;8.00;;;;;19.84;61.71;101011.00;146604;576;46912;-65
2023/06/04 02:15:43;;;;;;;;;11.00;8.00;;;;;19.91;60.48;101016.37;146611;602;46010;-66
2023/06/04 02:18:44;;;;;;;;;7.00;7.00;;;;;19.96;61.29;101017.31;146606;589;47012;-65
2023/06/04 02:21:37;;;;;;;;;7.00;6.33;;;;;20.01;62.32;101021.81;146609;612;46010;-66
2023/06/04 02:24:38;;;;;;;;;10.00;9.33;;;;;20.01;61.87;101015.66;146605;586;47012;-64
2023/06/04 02:27:41;;;;;;;;;5.00;5.00;;;;;20.04;61.77;101020.97;146606;566;46015;-66
2023/06/04 02:30:36;;;;;;;;;6.50;6.50;;;;;20.06;62.37;101028.03;146608;628;46012;-66
2023/06/04 02:33:44;;;;;;;;;7.00;7.00;;;;;18.99;62.66;100838.44;146608;604;46020;-66
2023/06/04 02:36:40;;;;;;;;;8.00;7.67;;;;;19.96;62.61;101027.84;146604;598;46017;-65
2023/06/04 02:39:32;;;;;;;;;8.00;7.00;;;;;19.85;62.75;101030.28;146608;639;46017;-65
2023/06/04 02:42:32;;;;;;;;;7.67;7.67;;;;;19.79;62.84;101024.91;146606;610;47012;-65
2023/06/04 02:45:32;;;;;;;;;10.00;9.00;;;;;19.75;62.65;101023.97;146606;710;47014;-66
2023/06/04 02:48:26;;;;;;;;;8.33;8.00;;;;;19.70;62.33;101030.00;146602;588;47012;-64
2023/06/04 02:51:34;;;;;;;;;;;;;;;;;;;;;
2023/06/04 02:54:33;;;;;;;;;8.00;6.00;;;;;19.68;63.31;101029.06;146624;563;46915;-66
2023/06/04 02:57:27;;;;;;;;;12.67;10.33;;;;;19.65;63.35;101026.38;146626;666;45021;-66
2023/06/04 03:00:38;;;;;;;;;7.67;7.67;;;;;17.27;60.68;100630.16;146628;565;45035;-65
2023/06/04 03:03:53;;;;;;;;;11.00;8.00;;;;;19.66;61.75;101030.78;146623;630;45020;-65
2023/06/04 03:06:57;;;;;;;;;7.00;6.00;;;;;18.43;61.38;100826.81;146624;566;45016;-65
2023/06/04 03:10:08;;;;;;;;;;;;;;;;;;;;;
2023/06/04 03:13:04;;;;;;;;;9.33;8.00;;;;;19.59;61.13;101033.28;146627;605;45017;-64
2023/06/04 03:16:01;;;;;;;;;8.00;8.00;;;;;19.63;61.68;101047.37;146632;611;45010;-65
2023/06/04 03:18:57;;;;;;;;;7.67;7.67;;;;;19.64;62.04;101057.06;146623;634;46017;-63
2023/06/04 03:22:05;;;;;;;;;10.75;9.00;;;;;19.60;61.83;101050.84;146626;678;45923;-64
2023/06/04 03:25:24;;;;;;;;;8.00;8.00;;;;;19.61;61.53;101059.63;146625;570;46012;-65
2023/06/04 03:28:19;;;;;;;;;7.67;6.00;;;;;19.65;60.96;101056.22;146628;621;46010;-64
2023/06/04 03:31:20;;;;;;;;;10.00;7.00;;;;;19.69;61.53;101068.59;146628;574;46012;-64
2023/06/04 03:34:16;;;;;;;;;10.50;10.00;;;;;19.71;61.59;101072.13;146627;659;46011;-64
2023/06/04 03:37:17;;;;;;;;;10.00;9.33;;;;;19.71;61.49;101073.87;146625;570;45016;-65
2023/06/04 03:40:16;;;;;;;;;9.50;7.75;;;;;19.69;61.79;101076.47;146629;594;45020;-65
2023/06/04 03:43:19;;;;;;;;;8.00;8.00;;;;;19.69;61.90;101071.22;146627;635;46017;-65
2023/06/04 03:46:29;;;;;;;;;7.00;7.00;;;;;19.67;61.15;101078.19;146632;592;45010;-65
2023/06/04 03:49:36;;;;;;;;;10.00;8.00;;;;;17.27;60.26;100659.84;146621;564;46915;-66
2023/06/04 03:52:28;;;;;;;;;7.67;7.00;;;;;19.70;62.55;101072.09;146609;570;46010;-64
2023/06/04 03:55:52;;;;;;;;;6.33;6.00;;;;;17.11;59.54;100623.69;146606;575;46014;-64
2023/06/04 03:59:04;;;;;;;;;7.33;7.33;;;;;19.83;60.49;101093.41;146610;612;46010;-65
2023/06/04 04:02:00;;;;;;;;;7.67;7.67;;;;;19.94;61.97;101096.25;146604;582;46914;-66
2023/06/04 04:05:06;;;;;;;;;9.00;7.00;;;;;17.38;60.84;100639.12;146608;610;46021;-66
2023/06/04 04:08:16;;;;;;;;;8.00;5.67;;;;;20.14;60.72;101101.87;146608;607;46012;-65
2023/06/04 04:11:12;;;;;;;;;5.67;5.00;;;;;20.31;62.74;101104.78;146608;579;47010;-66
2023/06/04 04:14:12;;;;;;;;;9.67;8.67;;;;;20.45;61.19;101118.22;146604;600;47012;-66
2023/06/04 04:17:04;;;;;;;;;7.33;7.33;;;;;20.59;61.68;101114.13;146608;569;46020;-65
2023/06/04 04:20:05;;;;;;;;;7.00;6.67;;;;;20.71;61.14;101121.31;146606;625;46017;-65
2023/06/04 04:23:12;;;;;;;;;7.67;7.67;;;;;20.81;61.57;101122.34;146609;608;47010;-66
2023/06/04 04:26:16;;;;;;;;;8.00;7.00;;;;;20.88;60.75;101118.97;146609;574;46012;-66
2023/06/04 04:29:14;;;;;;;;;7.67;7.67;;;;;20.99;60.88;101115.59;146608;579;46020;-65
2023/06/04 04:32:12;;;;;;;;;9.00;7.33;;;;;21.17;60.00;101117.63;146606;569;46012;-65
2023/06/04 04:35:17;;;;;;;;;7.67;7.00;;;;;21.37;58.74;101117.03;146607;574;46021;-65
2023/06/04 04:38:41;;;;;;;;;9.50;8.50;;;;;21.61;58.13;101130.56;146606;644;46014;-65
2023/06/04 04:41:46;;;;;;;;;9.00;8.00;;;;;21.80;57.97;101123.75;146609;586;46021;-64
2023/06/04 04:44:53;;;;;;;;;6.33;6.33;;;;;21.97;56.32;101117.78;146606;573;46016;-64
2023/06/04 04:48:03;;;;;;;;;10.67;9.00;;;;;19.64;55.17;100716.81;146608;576;46021;-65
2023/06/04 04:51:00;;;;;;;;;9.67;7.33;;;;;22.28;56.00;101119.91;146606;564;47032;-65
2023/06/04 04:53:57;;;;;;;;;9.00;8.67;;;;;22.45;56.13;101125.31;146610;577;46014;-65
2023/06/04 04:57:03;;;;;;;;;8.50;8.00;;;;;22.64;55.06;101129.00;146603;682;47914;-64
2023/06/04 05:00:09;;;;;;;;;7.33;6.67;;;;;22.77;54.29;101156.41;146609;566;46010;-63
2023/06/04 05:03:17;;;;;;;;;9.00;7.00;;;;;22.94;54.06;101135.44;146607;572;46016;-64
2023/06/04 05:06:21;;;;;;;;;7.33;7.33;;;;;22.98;53.79;101140.75;146605;610;46021;-63
2023/06/04 05:09:22;;;;;;;;;9.00;8.00;;;;;23.05;53.82;101141.69;146605;635;46016;-63
2023/06/04 05:12:19;;;;;;;;;7.00;7.00;;;;;23.16;53.64;101145.28;146607;575;47010;-64
2023/06/04 05:15:17;;;;;;;;;7.67;7.67;;;;;23.28;54.01;101148.00;146606;626;46014;-64
2023/06/04 05:18:40;;;;;;;;;;;;;;;;;;;;;
2023/06/04 05:22:05;;;;;;;;;7.67;7.67;;;;;21.36;52.44;100775.87;146606;601;47012;-65
2023/06/04 05:25:12;;;;;;;;;7.00;6.00;;;;;23.71;52.71;101158.84;146607;602;46010;-66
2023/06/04 05:28:12;;;;;;;;;9.00;8.67;;;;;23.84;52.71;101166.84;146606;608;46012;-65
2023/06/04 05:31:07;;;;;;;;;10.25;9.75;;;;;23.91;52.50;101164.22;146609;589;46010;-65
2023/06/04 05:34:16;;;;;;;;;8.67;8.67;;;;;23.95;52.57;101173.06;146605;651;46016;-65
2023/06/04 05:37:36;;;;;;;;;;;;;;;;;;;;;
2023/06/04 05:40:52;;;;;;;;;;;;;;;;;;;;;
2023/06/04 05:43:55;;;;;;;;;8.00;7.00;;;;;24.53;51.79;101186.47;146609;602;46020;-65
2023/06/04 05:46:59;;;;;;;;;10.00;9.00;;;;;24.62;51.25;101188.25;146604;607;46016;-66
2023/06/04 05:49:57;;;;;;;;;12.33;10.67;;;;;24.73;51.49;101196.22;146607;663;46021;-66
2023/06/04 05:52:51;;;;;;;;;11.00;8.00;;;;;24.79;51.42;101198.88;146602;604;46016;-64
2023/06/04 05:55:47;;;;;;;;;8.67;8.67;;;;;24.80;50.95;101205.97;146609;584;47011;-66
2023/06/04 05:58:58;;;;;;;;;8.67;8.00;;;;;24.71;51.54;101203.31;146604;584;47012;-68
2023/06/04 06:01:58;;;;;;;;;9.33;8.00;;;;;24.63;51.52;101205.94;146608;650;46010;-70
2023/06/04 06:04:52;;;;;;;;;9.00;7.00;;;;;24.61;52.30;101213.91;146605;581;46017;-69
2023/06/04 06:11:18;;;;;;;;;9.00;7.50;;;;;24.84;51.50;101213.03;146606;581;46032;-67
2023/06/04 06:14:11;;;;;;;;;8.33;7.67;;;;;24.85;50.59;101217.44;146608;645;46020;-63
2023/06/04 06:17:13;;;;;;;;;9.67;8.33;;;;;24.77;50.69;101209.50;146603;608;47015;-66
2023/06/04 06:20:08;;;;;;;;;8.00;7.00;;;;;24.74;51.01;101222.75;146606;584;46010;-64
2023/06/04 06:23:01;;;;;;;;;11.67;10.00;;;;;24.69;50.81;101220.97;146605;673;46016;-66
2023/06/04 06:25:55;;;;;;;;;8.75;8.75;;;;;24.70;51.27;101220.06;146608;648;45021;-66
2023/06/04 06:29:16;;;;;;;;;8.33;8.33;;;;;22.62;51.21;100834.75;146606;654;46488;-64
2023/06/04 06:32:11;;;;;;;;;12.00;9.67;;;;;25.18;50.46;101235.16;146609;665;46010;-67
2023/06/04 06:35:07;;;;;;;;;7.00;7.00;;;;;25.29;49.84;101225.41;146602;629;46034;-68
2023/06/04 06:38:19;;;;;;;;;9.00;8.00;;;;;25.31;49.89;101231.59;146608;666;46010;-68
2023/06/04 06:41:23;;;;;;;;;9.00;9.00;;;;;25.33;50.11;101235.16;146605;581;46016;-68
2023/06/04 06:44:18;;;;;;;;;8.33;8.00;;;;;25.44;50.27;101228.91;146607;584;46020;-68
2023/06/04 06:47:25;;;;;;;;;9.50;9.25;;;;;25.57;50.07;101228.00;146606;603;46013;-69
2023/06/04 06:50:18;;;;;;;;;9.25;8.25;;;;;25.78;49.56;101229.72;146608;650;47010;-67
2023/06/04 06:53:24;;;;;;;;;8.00;7.67;;;;;25.96;48.54;101229.69;146603;597;47017;-69
2023/06/04 06:56:21;;;;;;;;;8.00;8.00;;;;;26.12;48.28;101229.63;146607;601;46021;-68
2023/06/04 06:59:29;;;;;;;;;9.67;8.00;;;;;26.31;47.23;101230.41;146606;632;46016;-68
2023/06/04 07:02:29;;;;;;;;;10.00;9.25;;;;;26.47;47.67;101230.28;146608;683;46011;-66
2023/06/04 07:05:50;;;;;;;;;8.00;8.00;;;;;26.58;47.42;101232.06;146608;565;46012;-67
2023/06/04 07:08:48;;;;;;;;;9.67;8.00;;;;;26.64;47.11;101232.91;146609;566;46015;-68
2023/06/04 07:11:53;;;;;;;;;8.33;7.33;;;;;26.63;47.53;101231.09;146606;605;46016;-68
2023/06/04 07:14:57;;;;;;;;;9.33;9.00;;;;;26.47;47.60;101232.94;146609;576;46020;-68
2023/06/04 07:18:03;;;;;;;;;11.67;10.67;;;;;26.24;48.28;101233.09;146605;628;46017;-71
2023/06/04 07:21:02;;;;;;;;;8.67;6.33;;;;;26.05;48.70;101242.06;146608;612;46020;-68
2023/06/04 07:24:06;;;;;;;;;10.33;8.33;;;;;23.57;48.61;100839.34;146604;592;47914;-68
2023/06/04 07:27:14;;;;;;;;;10.67;8.00;;;;;25.75;49.10;101241.22;146608;574;47010;-70
2023/06/04 07:30:19;;;;;;;;;9.00;8.33;;;;;25.74;48.84;101252.75;146606;568;46016;-68
2023/06/04 07:33:27;;;;;;;;;8.33;7.00;;;;;25.76;48.39;101284.59;146609;589;46021;-70
2023/06/04 07:36:34;;;;;;;;;9.67;8.67;;;;;25.83;48.84;101257.19;146600;569;47014;-68
2023/06/04 07:39:41;;;;;;;;;7.00;7.00;;;;;25.95;48.03;101261.56;146608;589;46010;-68
2023/06/04 07:42:52;;;;;;;;;8.33;8.33;;;;;26.08;48.14;101262.44;146606;597;46016;-69
2023/06/04 07:45:47;;;;;;;;;11.33;9.00;;;;;26.27;47.76;101258.78;146608;619;47015;-68
2023/06/04 07:48:45;;;;;;;;;8.67;7.33;;;;;26.51;45.20;101263.09;146606;573;46016;-70
2023/06/04 07:51:43;;;;;;;;;8.33;8.33;;;;;26.70;44.62;101269.22;146607;643;46020;-68
2023/06/04 07:54:46;;;;;;;;;8.00;7.33;;;;;26.88;42.66;101265.53;146607;583;46014;-68
2023/06/04 07:57:53;;;;;;;;;9.00;7.67;;;;;27.08;45.17;101260.94;146604;584;46035;-69
2023/06/04 08:00:53;;;;;;;;;6.67;6.67;;;;;27.31;43.25;101267.87;146606;578;46914;-67
2023/06/04 08:03:51;;;;;;;;;7.67;7.67;;;;;27.50;41.72;101268.56;146606;602;46010;-69
2023/06/04 08:06:55;;;;;;;;;7.00;7.00;;;;;27.54;41.52;101260.53;146605;612;46016;-68
2023/06/04 08:10:15;;;;;;;;;8.67;7.67;;;;;27.58;42.14;101259.59;146608;620;46034;-68
2023/06/04 08:13:09;;;;;;;;;6.33;5.33;;;;;27.57;41.22;101260.50;146603;602;46016;-66
2023/06/04 08:16:10;;;;;;;;;10.00;8.00;;;;;27.44;42.61;101263.31;146609;571;47011;-67
2023/06/04 08:19:06;;;;;;;;;5.67;5.67;;;;;27.23;42.78;101265.28;146608;601;46012;-68
2023/06/04 08:22:06;;;;;;;;;6.33;5.67;;;;;27.00;43.78;101257.44;146609;583;46020;-67
2023/06/04 08:25:01;;;;;;;;;7.00;7.00;;;;;26.81;42.98;101262.03;146607;641;45017;-67
2023/06/04 08:28:01;;;;;;;;;8.00;7.00;;;;;26.62;44.57;101261.28;146609;686;46014;-66
2023/06/04 08:31:03;;;;;;;;;6.00;6.00;;;;;26.53;43.48;101261.31;146604;571;46017;-66
2023/06/04 08:33:57;;;;;;;;;6.67;6.00;;;;;26.53;43.64;101261.31;146607;582;46020;-66
2023/06/04 08:37:10;;;;;;;;;8.33;7.00;;;;;24.64;45.49;100916.94;146604;598;46016;-66
2023/06/04 08:40:27;;;;;;;;;7.67;6.67;;;;;26.75;44.17;101264.72;146608;565;46020;-66
2023/06/04 08:43:45;;;;;;;;;8.00;7.00;;;;;26.75;44.63;101255.88;146607;593;47016;-66
2023/06/04 08:47:01;;;;;;;;;8.00;8.00;;;;;24.62;44.90;100872.75;146608;571;46011;-67
2023/06/04 08:50:04;;;;;;;;;9.67;6.33;;;;;26.84;44.48;101256.69;146604;602;47016;-67
2023/06/04 08:53:10;;;;;;;;;7.33;7.33;;;;;26.81;44.17;101262.03;146607;613;46021;-65
2023/06/04 08:56:19;;;;;;;;;8.00;8.00;;;;;25.53;43.69;101064.28;146603;571;46016;-66
2023/06/04 08:59:23;;;;;;;;;6.33;6.33;;;;;26.60;43.36;101262.16;146609;616;46010;-66
2023/06/04 09:02:23;;;;;;;;;8.00;7.00;;;;;26.49;45.19;101270.22;146609;579;46012;-65
2023/06/04 09:05:34;;;;;;;;;10.33;7.00;;;;;26.48;46.18;101268.44;146609;607;46020;-66
2023/06/04 09:08:52;;;;;;;;;7.33;6.33;;;;;26.55;46.34;101264.88;146607;627;46016;-67
2023/06/04 09:11:56;;;;;;;;;6.00;6.00;;;;;26.65;46.19;101258.59;146607;583;46020;-67
2023/06/04 09:15:05;;;;;;;;;7.67;7.67;;;;;26.89;45.68;101261.97;146605;570;47016;-67
2023/06/04 09:18:09;;;;;;;;;7.67;7.00;;;;;27.19;45.29;101266.19;146608;617;46020;-66
2023/06/04 09:21:24;;;;;;;;;7.00;7.00;;;;;25.96;45.18;101001.19;146604;563;46016;-70
2023/06/04 09:24:46;;;;;;;;;8.00;8.00;;;;;27.53;43.80;101274.75;146607;567;46010;-68
2023/06/04 09:27:58;;;;;;;;;9.00;8.00;;;;;25.21;43.51;100908.72;146608;638;46012;-69
2023/06/04 09:31:02;;;;;;;;;7.67;7.00;;;;;27.05;45.25;101271.59;146609;591;46011;-67
2023/06/04 09:34:05;;;;;;;;;7.00;5.33;;;;;26.80;45.00;101272.69;146607;596;46016;-69
2023/06/04 09:37:27;;;;;;;;;9.00;7.33;;;;;26.69;45.53;101270.97;146607;573;46021;-69
2023/06/04 09:40:29;;;;;;;;;7.00;7.00;;;;;26.84;45.02;101277.09;146606;622;46016;-70
2023/06/04 09:43:45;;;;;;;;;8.33;7.00;;;;;26.98;45.99;101266.31;146607;569;46020;-69
2023/06/04 09:46:57;;;;;;;;;7.33;6.00;;;;;27.13;45.17;101272.44;146605;611;46932;-70
2023/06/04 09:49:53;;;;;;;;;10.33;9.00;;;;;27.29;45.00;101277.63;146607;591;46020;-69
2023/06/04 09:52:51;;;;;;;;;6.33;6.33;;;;;27.36;45.02;101271.37;146604;570;46016;-69
2023/06/04 09:56:15;;;;;;;;;7.67;7.00;;;;;25.35;45.28;100945.78;146610;565;46014;-69
2023/06/04 09:59:42;;;;;;;;;6.67;6.67;;;;;25.07;45.96;100886.66;146606;582;46012;-68
2023/06/04 10:02:40;;;;;;;;;8.00;8.00;;;;;27.28;45.99;101279.41;146609;640;46020;-74
2023/06/04 10:05:39;;;;;;;;;8.50;6.25;;;;;27.23;46.24;101278.59;146603;565;47012;-71
2023/06/04 10:08:37;;;;;;;;;11.00;8.00;;;;;27.24;46.05;101287.47;146607;564;46021;-67
2023/06/04 10:11:49;;;;;;;;;9.33;8.33;;;;;27.27;46.54;101285.66;146607;605;46012;-69
2023/06/04 10:15:00;;;;;;;;;6.33;5.67;;;;;27.39;45.87;101292.66;146607;603;46020;-70
2023/06/04 10:17:56;;;;;;;;;9.67;9.00;;;;;27.46;46.09;101288.16;146603;578;46576;-69
2023/06/04 10:21:17;;;;;;;;;7.67;6.67;;;;;25.19;46.40;100899.88;146608;565;46010;-69
2023/06/04 10:24:35;;;;;;;;;8.00;8.00;;;;;27.44;47.84;101279.28;146609;584;46012;-69
2023/06/04 10:27:32;;;;;;;;;7.00;7.00;;;;;27.53;47.12;101277.41;146607;570;46020;-68
2023/06/04 10:30:28;;;;;;;;;8.00;8.00;;;;;27.55;47.24;101278.28;146607;635;46012;-68
2023/06/04 10:33:50;;;;;;;;;;;;;;;;;;;;;
2023/06/04 10:36:52;;;;;;;;;11.00;8.00;;;;;27.52;47.99;101277.44;146605;624;46916;-72
2023/06/04 10:40:06;;;;;;;;;5.67;5.67;;;;;27.50;47.89;101276.56;146609;709;46010;-69
2023/06/04 10:43:22;;;;;;;;;6.00;5.67;;;;;27.48;48.79;101276.59;146607;605;46016;-69
2023/06/04 10:46:19;;;;;;;;;7.00;7.00;;;;;27.50;49.27;101268.56;146606;569;47010;-68
2023/06/04 10:49:18;;;;;;;;;7.00;7.00;;;;;27.55;49.35;101274.75;146606;573;46014;-68
2023/06/04 10:52:25;;;;;;;;;6.33;6.33;;;;;27.67;47.55;101266.63;146607;576;46030;-67
2023/06/04 10:55:17;;;;;;;;;12.00;10.75;;;;;27.73;48.67;101260.34;146605;572;46034;-68
2023/06/04 10:58:17;;;;;;;;;8.50;7.75;;;;;27.78;47.17;101256.75;146607;687;46010;-68
2023/06/04 11:01:13;;;;;;;;;7.00;6.00;;;;;27.80;44.86;101267.41;146606;682;47012;-68
2023/06/04 11:04:27;;;;;;;;;11.50;10.50;;;;;27.85;45.55;101254.88;146606;660;46020;-68
2023/06/04 11:07:22;;;;;;;;;5.00;5.00;;;;;27.90;45.15;101253.06;146607;671;46013;-68
2023/06/04 11:10:44;;;;;;;;;6.67;6.67;;;;;27.87;46.04;101261.09;146608;618;46020;-68
2023/06/04 11:13:36;;;;;;;;;5.67;5.67;;;;;27.82;45.86;101257.59;146607;590;46017;-67
2023/06/04 11:16:40;;;;;;;;;6.00;6.00;;;;;25.56;46.01;100868.66;146607;581;46020;-68
2023/06/04 11:19:41;;;;;;;;;6.50;6.00;;;;;27.79;46.02;101252.31;146607;594;46012;-68
2023/06/04 11:22:50;;;;;;;;;5.75;5.25;;;;;27.78;44.43;101247.88;146606;684;46021;-66
2023/06/04 11:26:00;;;;;;;;;6.50;6.25;;;;;27.82;45.33;101252.25;146605;641;46016;-68
2023/06/04 11:29:02;;;;;;;;;6.00;6.00;;;;;27.86;46.34;101259.34;146605;570;46014;-69
2023/06/04 11:32:04;;;;;;;;;9.00;6.00;;;;;27.93;44.63;101247.69;146599;605;47016;-68
2023/06/04 11:35:14;;;;;;;;;7.33;6.00;;;;;27.94;43.87;101249.44;146609;582;46020;-71
2023/06/04 11:38:22;;;;;;;;;9.33;8.00;;;;;27.90;45.09;101250.41;146606;591;46016;-68
2023/06/04 11:41:25;;;;;;;;;6.67;6.33;;;;;27.82;45.99;101233.59;146609;569;46025;-69
2023/06/04 11:44:25;;;;;;;;;6.33;5.33;;;;;27.80;46.59;101243.41;146605;569;46017;-65
2023/06/04 11:47:37;;;;;;;;;;;;;;;;;;;;;
2023/06/04 11:50:42;;;;;;;;;7.33;6.33;;;;;27.87;46.54;101232.66;146606;635;46013;-68
2023/06/04 11:53:43;;;;;;;;;7.00;7.00;;;;;28.04;45.80;101236.91;146607;587;46021;-69
2023/06/04 11:56:55;;;;;;;;;7.33;7.00;;;;;28.14;45.49;101232.34;146606;603;45020;-68
2023/06/04 11:59:51;;;;;;;;;8.00;7.00;;;;;28.20;44.41;101225.12;146608;620;47011;-68
2023/06/04 12:03:04;;;;;;;;;6.00;6.00;;;;;28.18;43.89;101216.25;146605;634;46032;-69
2023/06/04 12:06:12;;;;;;;;;6.33;6.00;;;;;28.16;43.89;101223.37;146610;656;46010;-70
2023/06/04 12:09:34;;;;;;;;;;;;;;;;;;;;;
2023/06/04 12:12:35;;;;;;;;;7.33;7.00;;;;;28.05;43.31;101228.00;146610;648;46012;-68
2023/06/04 12:15:31;;;;;;;;;10.00;7.75;;;;;28.03;44.10;101229.78;146604;577;46016;-67
2023/06/04 12:18:50;;;;;;;;;7.67;7.33;;;;;26.84;43.81;101038.50;146607;575;46010;-69
2023/06/04 12:22:02;;;;;;;;;6.33;6.33;;;;;27.85;43.16;101229.16;146605;592;46017;-68
2023/06/04 12:25:27;;;;;;;;;8.00;8.00;;;;;25.52;42.34;100840.37;146603;614;47014;-68
2023/06/04 12:28:26;;;;;;;;;7.00;5.67;;;;;27.72;43.73;101234.59;146606;614;46018;-69
2023/06/04 12:31:35;;;;;;;;;8.00;7.67;;;;;25.62;44.36;100890.75;146609;646;46031;-68
2023/06/04 12:34:39;;;;;;;;;8.75;8.75;;;;;27.58;43.99;101227.63;146607;604;46012;-68
2023/06/04 12:37:34;;;;;;;;;7.67;7.00;;;;;27.58;42.38;101230.31;146609;579;46014;-68
2023/06/04 12:40:36;;;;;;;;;6.00;6.00;;;;;27.54;43.94;101223.25;146605;586;46016;-68
2023/06/04 12:43:39;;;;;;;;;8.00;8.00;;;;;27.58;43.23;101226.75;146608;564;47011;-70
2023/06/04 12:46:43;;;;;;;;;8.00;7.00;;;;;27.72;41.83;101223.94;146605;585;46016;-69
2023/06/04 12:49:57;;;;;;;;;7.50;7.00;;;;;25.51;42.30;100830.66;146605;582;46021;-68
2023/06/04 12:52:54;;;;;;;;;6.33;6.00;;;;;27.85;39.54;101215.81;146605;650;46016;-67
2023/06/04 12:56:03;;;;;;;;;7.00;6.00;;;;;27.92;41.87;101205.97;146609;617;46020;-70
2023/06/04 12:59:01;;;;;;;;;8.67;7.00;;;;;27.96;38.08;101201.47;146606;581;46017;-69
2023/06/04 13:02:00;;;;;;;;;5.00;4.00;;;;;27.98;40.02;101192.56;146610;577;46014;-68
2023/06/04 13:05:28;;;;;;;;;6.00;5.00;;;;;28.04;43.00;101187.16;146606;611;45041;-69
2023/06/04 13:08:25;;;;;;;;;8.00;6.00;;;;;28.10;37.97;101191.50;146607;592;46029;-67
2023/06/04 13:11:24;;;;;;;;;5.00;5.00;;;;;28.11;39.10;101192.38;146607;607;46914;-69
2023/06/04 13:14:25;;;;;;;;;9.00;9.00;;;;;28.04;39.43;101195.12;146609;621;46021;-68
2023/06/04 13:17:29;;;;;;;;;6.33;5.67;;;;;28.04;40.72;101186.25;146604;575;46016;-67
2023/06/04 13:20:27;;;;;;;;;6.33;5.67;;;;;28.03;36.52;101198.69;146608;632;46021;-67
2023/06/04 13:23:20;;;;;;;;;6.00;6.00;;;;;28.03;36.21;101201.34;146605;579;46914;-68
2023/06/04 13:26:26;;;;;;;;;7.00;6.00;;;;;28.06;40.36;101209.31;146610;564;46010;-68
2023/06/04 13:29:23;;;;;;;;;6.00;5.00;;;;;27.98;35.36;101202.34;146607;564;47012;-68
2023/06/04 13:32:30;;;;;;;;;7.00;6.00;;;;;27.85;34.08;101214.91;146607;593;46020;-69
2023/06/04 13:35:30;;;;;;;;;5.67;5.33;;;;;27.76;37.07;101207.03;146609;570;45016;-69
2023/06/04 13:38:32;;;;;;;;;7.33;6.33;;;;;27.70;33.98;101201.78;146612;581;46010;-69
2023/06/04 13:41:35;;;;;;;;;7.00;5.67;;;;;26.69;38.21;101033.34;146608;592;46015;-68
2023/06/04 13:44:35;;;;;;;;;6.67;6.67;;;;;27.64;35.15;101208.03;146606;593;46028;-70
2023/06/04 13:47:28;;;;;;;;;5.00;4.00;;;;;27.61;35.88;101206.28;146608;590;46016;-68
2023/06/04 13:50:30;;;;;;;;;5.33;5.33;;;;;27.61;35.35;101208.97;146604;596;46021;-68
2023/06/04 13:53:36;;;;;;;;;5.00;5.00;;;;;27.58;35.38;101208.12;146605;585;47012;-69
2023/06/04 13:56:36;;;;;;;;;5.67;5.67;;;;;27.53;36.83;101200.16;146608;584;46011;-68
2023/06/04 13:59:31;;;;;;;;;7.00;6.00;;;;;27.49;36.49;101201.09;146603;602;47016;-67
2023/06/04 14:02:34;;;;;;;;;6.50;5.50;;;;;27.49;37.31;101190.44;146608;579;46010;-68
2023/06/04 14:05:47;;;;;;;;;6.75;6.00;;;;;27.59;35.96;101184.09;146605;642;46915;-67
2023/06/04 14:08:43;;;;;;;;;7.00;5.00;;;;;27.66;36.20;101184.91;146610;608;46010;-68
2023/06/04 14:11:38;;;;;;;;;3.00;3.00;;;;;27.74;35.09;101184.84;146606;576;46016;-68
2023/06/04 14:14:36;;;;;;;;;4.67;4.33;;;;;27.79;36.78;101180.38;146607;575;46014;-69
2023/06/04 14:17:31;;;;;;;;;7.00;7.00;;;;;27.81;35.95;101176.75;146603;584;47029;-66
2023/06/04 14:20:45;;;;;;;;;7.00;6.67;;;;;25.53;36.55;100785.50;146605;645;47027;-68
2023/06/04 14:23:46;;;;;;;;;5.00;5.00;;;;;27.80;35.15;101168.81;146605;636;46016;-69
2023/06/04 14:26:44;;;;;;;;;5.67;4.67;;;;;27.77;35.57;101167.06;146608;569;47010;-69
2023/06/04 14:29:41;;;;;;;;;6.67;6.67;;;;;27.80;35.97;101163.47;146604;570;47016;-69
2023/06/04 14:32:45;;;;;;;;;5.00;5.00;;;;;27.83;35.58;101158.09;146605;640;46020;-69
2023/06/04 14:35:48;;;;;;;;;6.00;6.00;;;;;27.85;35.31;101159.84;146606;604;46021;-69
2023/06/04 14:38:53;;;;;;;;;1.33;1.00;;;;;27.84;37.05;101154.53;146610;655;46010;-69